Greater Peoria Regional Airport
KPIA : now visible

Airfield :











YOU CAN JOIN US ON...

 
LOGIN :

Register | Disclaimer

   EN    FR    IT 

 









Legend :    VFR   Marginal VFR   IFR   Intensive IFR   Very Intensive IFR
Visi :
Ceiling :
>= 8 km
>= 3000ft
5 to 8 km
1000 to 3000 ft
1500m to 5 km
500 to 1000 ft
800 to 1500m
200 to 500 ft
< 800m
< 200 ft
Symbols :   Thunderstorms  Fog  Heavy snow  Heavy precipitations  Wind > 20 kt






- Airport Elevation : 660 ft
- IATA code : PIA


KPIA - Greater Peoria Regional

CURRENT METAR :
  • 271854Z 35009G17KT 10SM FEW100 09/03 A2960 RMK AO2 SLP025 T00890033 $

EXPIRED METARs :
  • 271754Z 34010G18KT 320V020 10SM FEW016 SCT100 08/04 A2956 RMK AO2 SLP013 60017 T00830044 10089 20056 51034 $
  • 271732Z 33009KT 10SM BKN014 BKN095 BKN110 08/06 A2956 RMK AO2 T00830056 $
  • 271654Z 35011G17KT 6SM BR SCT012 SCT017 OVC065 07/06 A2955 RMK AO2 SLP009 T00720061 $
  • 271644Z 32009KT 6SM BR SCT012 BKN019 OVC100 07/06 A2955 RMK AO2 T00720061 $

TAF KPIA
Valid from the 27 at 18:00 until the 28 at 18:00 UTC


271733Z 2718/2818 33009G18KT P6SM VCSH SCT020 BKN080
FM272000 33008G17KT P6SM BKN025 OVC060
FM280000 34006KT P6SM BKN040 BKN100
FM280900 00000KT 3SM BR SCT007 BKN015 BKN100
KZAU FIR / North America



MET'MAP, your aeronautical weather chart ! - Copyright ORBIFLY December 2007 - Disclaimer

ORBIFLY MET'MAP TEAM :

Programming & Development : Alexandra Zaïnal
Original concept : Baudouin d'Aumeries
Technical & hardware support : Manuel Goepfert
Assistance : Marc-Olivier Méhu




SOURCES & CREDITS :

   NOAA       Earth
Advisory